sensor_id;sensor_type;location;lat;lon;timestamp;P1;durP1;ratioP1;P2;durP2;ratioP2
42802;SDS011;28447;48.682;9.022;2023-07-20T04:00:46;5.30;;;4.10;;
42802;SDS011;28447;48.682;9.022;2023-07-20T04:03:13;5.27;;;3.93;;
42802;SDS011;28447;48.682;9.022;2023-07-20T04:05:39;6.00;;;4.40;;
42802;SDS011;28447;48.682;9.022;2023-07-20T04:08:05;6.40;;;3.87;;
42802;SDS011;28447;48.682;9.022;2023-07-20T04:10:31;6.80;;;4.17;;
42802;SDS011;28447;48.682;9.022;2023-07-20T04:12:56;29.53;;;4.70;;
42802;SDS011;28447;48.682;9.022;2023-07-20T04:15:22;8.43;;;4.07;;
42802;SDS011;28447;48.682;9.022;2023-07-20T04:17:48;5.37;;;4.07;;
42802;SDS011;28447;48.682;9.022;2023-07-20T04:20:14;4.50;;;3.70;;
42802;SDS011;28447;48.682;9.022;2023-07-20T04:22:40;7.33;;;5.90;;
42802;SDS011;28447;48.682;9.022;2023-07-20T04:25:05;5.03;;;4.10;;
42802;SDS011;28447;48.682;9.022;2023-07-20T04:27:31;4.60;;;3.67;;
42802;SDS011;28447;48.682;9.022;2023-07-20T04:30:00;6.70;;;4.00;;
42802;SDS011;28447;48.682;9.022;2023-07-20T04:32:26;6.03;;;3.80;;
42802;SDS011;28447;48.682;9.022;2023-07-20T04:34:51;4.43;;;3.17;;
42802;SDS011;28447;48.682;9.022;2023-07-20T04:37:17;8.50;;;4.67;;
42802;SDS011;28447;48.682;9.022;2023-07-20T04:39:43;5.00;;;4.40;;
42802;SDS011;28447;48.682;9.022;2023-07-20T04:42:08;6.03;;;3.50;;
42802;SDS011;28447;48.682;9.022;2023-07-20T04:44:34;7.23;;;3.63;;
42802;SDS011;28447;48.682;9.022;2023-07-20T04:47:00;5.20;;;4.27;;
42802;SDS011;28447;48.682;9.022;2023-07-20T04:49:25;4.90;;;3.37;;
42802;SDS011;28447;48.682;9.022;2023-07-20T04:51:51;8.00;;;4.10;;
42802;SDS011;28447;48.682;9.022;2023-07-20T04:54:17;6.63;;;3.80;;
42802;SDS011;28447;48.682;9.022;2023-07-20T04:56:43;6.60;;;4.50;;
42802;SDS011;28447;48.682;9.022;2023-07-20T04:59:09;5.73;;;4.23;;
42802;SDS011;28447;48.682;9.022;2023-07-20T05:01:35;6.70;;;3.67;;
42802;SDS011;28447;48.682;9.022;2023-07-20T05:04:01;5.83;;;3.30;;
42802;SDS011;28447;48.682;9.022;2023-07-20T05:06:26;4.53;;;3.60;;
42802;SDS011;28447;48.682;9.022;2023-07-20T05:08:52;5.67;;;3.77;;
42802;SDS011;28447;48.682;9.022;2023-07-20T05:11:18;3.97;;;3.57;;
42802;SDS011;28447;48.682;9.022;2023-07-20T05:13:43;4.67;;;3.30;;
42802;SDS011;28447;48.682;9.022;2023-07-20T05:16:09;7.30;;;3.87;;
42802;SDS011;28447;48.682;9.022;2023-07-20T05:18:35;10.63;;;3.60;;
42802;SDS011;28447;48.682;9.022;2023-07-20T05:21:00;4.90;;;3.30;;
42802;SDS011;28447;48.682;9.022;2023-07-20T05:23:26;4.17;;;3.47;;
42802;SDS011;28447;48.682;9.022;2023-07-20T05:25:55;5.13;;;3.80;;
42802;SDS011;28447;48.682;9.022;2023-07-20T05:28:21;14.90;;;3.57;;
42802;SDS011;28447;48.682;9.022;2023-07-20T05:30:48;15.60;;;3.70;;
42802;SDS011;28447;48.682;9.022;2023-07-20T05:33:14;7.00;;;3.33;;
42802;SDS011;28447;48.682;9.022;2023-07-20T05:35:39;9.00;;;3.53;;
42802;SDS011;28447;48.682;9.022;2023-07-20T05:38:05;7.43;;;3.67;;
42802;SDS011;28447;48.682;9.022;2023-07-20T05:40:31;6.60;;;3.27;;
42802;SDS011;28447;48.682;9.022;2023-07-20T05:42:57;4.70;;;4.07;;
42802;SDS011;28447;48.682;9.022;2023-07-20T05:45:24;7.90;;;3.27;;
42802;SDS011;28447;48.682;9.022;2023-07-20T05:47:49;8.60;;;4.53;;
42802;SDS011;28447;48.682;9.022;2023-07-20T05:50:15;5.60;;;3.07;;
42802;SDS011;28447;48.682;9.022;2023-07-20T05:52:41;6.77;;;3.43;;
42802;SDS011;28447;48.682;9.022;2023-07-20T05:55:06;11.07;;;3.40;;
42802;SDS011;28447;48.682;9.022;2023-07-20T05:57:33;7.23;;;3.57;;
42802;SDS011;28447;48.682;9.022;2023-07-20T05:59:58;6.40;;;3.67;;
42802;SDS011;28447;48.682;9.022;2023-07-20T06:02:24;15.87;;;3.90;;
42802;SDS011;28447;48.682;9.022;2023-07-20T06:04:50;5.70;;;3.97;;
42802;SDS011;28447;48.682;9.022;2023-07-20T06:07:15;12.33;;;3.10;;
42802;SDS011;28447;48.682;9.022;2023-07-20T06:09:41;5.40;;;3.70;;
42802;SDS011;28447;48.682;9.022;2023-07-20T06:12:08;6.23;;;3.67;;
42802;SDS011;28447;48.682;9.022;2023-07-20T06:14:34;6.00;;;3.50;;
42802;SDS011;28447;48.682;9.022;2023-07-20T06:17:00;7.07;;;3.30;;
42802;SDS011;28447;48.682;9.022;2023-07-20T06:19:25;5.33;;;3.07;;
42802;SDS011;28447;48.682;9.022;2023-07-20T06:21:51;6.97;;;3.47;;
42802;SDS011;28447;48.682;9.022;2023-07-20T06:24:17;5.63;;;3.20;;
42802;SDS011;28447;48.682;9.022;2023-07-20T06:26:43;6.60;;;3.47;;
42802;SDS011;28447;48.682;9.022;2023-07-20T06:29:09;4.07;;;3.27;;
42802;SDS011;28447;48.682;9.022;2023-07-20T06:31:35;5.37;;;3.37;;
42802;SDS011;28447;48.682;9.022;2023-07-20T06:34:01;3.90;;;3.03;;
42802;SDS011;28447;48.682;9.022;2023-07-20T06:36:27;4.87;;;3.30;;
42802;SDS011;28447;48.682;9.022;2023-07-20T06:38:53;5.30;;;3.80;;
42802;SDS011;28447;48.682;9.022;2023-07-20T06:41:19;7.93;;;3.83;;
42802;SDS011;28447;48.682;9.022;2023-07-20T06:43:45;6.87;;;3.33;;
42802;SDS011;28447;48.682;9.022;2023-07-20T06:46:11;4.40;;;3.50;;
42802;SDS011;28447;48.682;9.022;2023-07-20T06:48:36;5.50;;;3.07;;
42802;SDS011;28447;48.682;9.022;2023-07-20T06:51:02;11.10;;;3.20;;
42802;SDS011;28447;48.682;9.022;2023-07-20T06:53:28;7.30;;;4.00;;
42802;SDS011;28447;48.682;9.022;2023-07-20T06:55:54;5.90;;;3.83;;
42802;SDS011;28447;48.682;9.022;2023-07-20T06:58:22;4.93;;;3.43;;
42802;SDS011;28447;48.682;9.022;2023-07-20T07:00:48;8.40;;;3.87;;
42802;SDS011;28447;48.682;9.022;2023-07-20T07:03:14;6.37;;;3.40;;
42802;SDS011;28447;48.682;9.022;2023-07-20T07:05:40;7.47;;;3.67;;
42802;SDS011;28447;48.682;9.022;2023-07-20T07:08:06;4.80;;;3.43;;
42802;SDS011;28447;48.682;9.022;2023-07-20T07:10:33;6.07;;;3.70;;
42802;SDS011;28447;48.682;9.022;2023-07-20T07:13:01;5.97;;;3.60;;
42802;SDS011;28447;48.682;9.022;2023-07-20T07:15:27;5.17;;;3.50;;
42802;SDS011;28447;48.682;9.022;2023-07-20T07:17:52;8.87;;;3.60;;
42802;SDS011;28447;48.682;9.022;2023-07-20T07:20:18;3.70;;;3.07;;
42802;SDS011;28447;48.682;9.022;2023-07-20T07:22:44;6.30;;;3.50;;
42802;SDS011;28447;48.682;9.022;2023-07-20T07:25:10;5.23;;;3.57;;
42802;SDS011;28447;48.682;9.022;2023-07-20T07:27:36;5.77;;;3.60;;
42802;SDS011;28447;48.682;9.022;2023-07-20T07:30:02;8.93;;;3.60;;
42802;SDS011;28447;48.682;9.022;2023-07-20T07:32:28;5.23;;;3.50;;
42802;SDS011;28447;48.682;9.022;2023-07-20T07:34:54;9.20;;;4.30;;
42802;SDS011;28447;48.682;9.022;2023-07-20T07:37:20;6.27;;;4.03;;
42802;SDS011;28447;48.682;9.022;2023-07-20T07:39:46;8.43;;;4.07;;
42802;SDS011;28447;48.682;9.022;2023-07-20T07:42:12;7.60;;;3.70;;
42802;SDS011;28447;48.682;9.022;2023-07-20T07:44:38;6.80;;;3.83;;
42802;SDS011;28447;48.682;9.022;2023-07-20T07:47:04;7.50;;;4.10;;
42802;SDS011;28447;48.682;9.022;2023-07-20T07:49:29;6.20;;;3.77;;
42802;SDS011;28447;48.682;9.022;2023-07-20T07:51:56;7.10;;;3.83;;
42802;SDS011;28447;48.682;9.022;2023-07-20T07:54:22;5.87;;;4.10;;
42802;SDS011;28447;48.682;9.022;2023-07-20T07:56:47;8.27;;;4.30;;
42802;SDS011;28447;48.682;9.022;2023-07-20T07:59:13;5.60;;;3.67;;
42802;SDS011;28447;48.682;9.022;2023-07-20T08:01:39;6.23;;;4.20;;
42802;SDS011;28447;48.682;9.022;2023-07-20T08:04:04;8.23;;;3.80;;
42802;SDS011;28447;48.682;9.022;2023-07-20T08:06:30;6.20;;;3.30;;
42802;SDS011;28447;48.682;9.022;2023-07-20T08:08:57;5.23;;;3.83;;
42802;SDS011;28447;48.682;9.022;2023-07-20T08:11:23;7.23;;;4.17;;
42802;SDS011;28447;48.682;9.022;2023-07-20T08:13:49;5.33;;;3.80;;
42802;SDS011;28447;48.682;9.022;2023-07-20T08:16:14;6.27;;;3.63;;
42802;SDS011;28447;48.682;9.022;2023-07-20T08:18:40;5.33;;;3.50;;
42802;SDS011;28447;48.682;9.022;2023-07-20T08:21:06;5.30;;;3.50;;
42802;SDS011;28447;48.682;9.022;2023-07-20T08:23:31;4.23;;;3.10;;
42802;SDS011;28447;48.682;9.022;2023-07-20T08:25:57;12.73;;;4.20;;
42802;SDS011;28447;48.682;9.022;2023-07-20T08:28:23;3.90;;;3.40;;
42802;SDS011;28447;48.682;9.022;2023-07-20T08:30:48;4.80;;;3.90;;
42802;SDS011;28447;48.682;9.022;2023-07-20T08:33:15;8.33;;;3.80;;
42802;SDS011;28447;48.682;9.022;2023-07-20T08:35:43;4.00;;;3.53;;
42802;SDS011;28447;48.682;9.022;2023-07-20T08:38:08;9.27;;;4.60;;
42802;SDS011;28447;48.682;9.022;2023-07-20T08:40:38;7.50;;;3.63;;
42802;SDS011;28447;48.682;9.022;2023-07-20T08:43:05;3.97;;;3.60;;
42802;SDS011;28447;48.682;9.022;2023-07-20T08:45:32;4.83;;;3.73;;
42802;SDS011;28447;48.682;9.022;2023-07-20T08:47:59;19.70;;;4.00;;
42802;SDS011;28447;48.682;9.022;2023-07-20T08:50:28;8.87;;;4.30;;
42802;SDS011;28447;48.682;9.022;2023-07-20T08:52:56;4.40;;;3.60;;
42802;SDS011;28447;48.682;9.022;2023-07-20T08:55:23;7.60;;;4.10;;
42802;SDS011;28447;48.682;9.022;2023-07-20T08:57:56;6.40;;;3.37;;
42802;SDS011;28447;48.682;9.022;2023-07-20T09:00:24;4.07;;;3.30;;
42802;SDS011;28447;48.682;9.022;2023-07-20T09:02:50;6.90;;;3.13;;
42802;SDS011;28447;48.682;9.022;2023-07-20T09:05:18;5.23;;;3.10;;
42802;SDS011;28447;48.682;9.022;2023-07-20T09:07:44;4.33;;;3.20;;
42802;SDS011;28447;48.682;9.022;2023-07-20T09:10:11;5.63;;;3.30;;
42802;SDS011;28447;48.682;9.022;2023-07-20T09:12:43;3.90;;;3.50;;
42802;SDS011;28447;48.682;9.022;2023-07-20T09:15:10;4.53;;;3.20;;
42802;SDS011;28447;48.682;9.022;2023-07-20T09:17:36;5.50;;;3.63;;
42802;SDS011;28447;48.682;9.022;2023-07-20T09:20:05;3.33;;;3.03;;
42802;SDS011;28447;48.682;9.022;2023-07-20T09:22:35;4.63;;;3.60;;
42802;SDS011;28447;48.682;9.022;2023-07-20T09:25:08;5.83;;;3.17;;
42802;SDS011;28447;48.682;9.022;2023-07-20T09:27:37;5.27;;;2.90;;
42802;SDS011;28447;48.682;9.022;2023-07-20T09:30:04;4.13;;;2.93;;
42802;SDS011;28447;48.682;9.022;2023-07-20T09:32:34;5.27;;;3.10;;
42802;SDS011;28447;48.682;9.022;2023-07-20T09:35:05;3.33;;;3.03;;
42802;SDS011;28447;48.682;9.022;2023-07-20T09:37:32;3.93;;;3.00;;
42802;SDS011;28447;48.682;9.022;2023-07-20T09:39:58;4.37;;;3.00;;
42802;SDS011;28447;48.682;9.022;2023-07-20T09:42:25;4.50;;;3.00;;
42802;SDS011;28447;48.682;9.022;2023-07-20T09:44:51;3.50;;;3.00;;
42802;SDS011;28447;48.682;9.022;2023-07-20T09:47:21;4.47;;;2.90;;
42802;SDS011;28447;48.682;9.022;2023-07-20T09:49:47;6.87;;;3.43;;
42802;SDS011;28447;48.682;9.022;2023-07-20T09:52:13;8.13;;;3.20;;
42802;SDS011;28447;48.682;9.022;2023-07-20T09:54:41;5.13;;;2.73;;
42802;SDS011;28447;48.682;9.022;2023-07-20T09:57:11;4.53;;;2.80;;
42802;SDS011;28447;48.682;9.022;2023-07-20T09:59:38;3.73;;;2.60;;
42802;SDS011;28447;48.682;9.022;2023-07-20T10:02:04;2.93;;;2.63;;
42802;SDS011;28447;48.682;9.022;2023-07-20T10:04:46;3.53;;;2.83;;
42802;SDS011;28447;48.682;9.022;2023-07-20T10:07:13;4.63;;;2.80;;
42802;SDS011;28447;48.682;9.022;2023-07-20T10:09:40;4.30;;;2.83;;
42802;SDS011;28447;48.682;9.022;2023-07-20T10:12:08;3.20;;;2.70;;
42802;SDS011;28447;48.682;9.022;2023-07-20T10:14:35;3.00;;;2.70;;
42802;SDS011;28447;48.682;9.022;2023-07-20T10:17:06;7.20;;;2.73;;
42802;SDS011;28447;48.682;9.022;2023-07-20T10:19:42;3.30;;;3.00;;
42802;SDS011;28447;48.682;9.022;2023-07-20T10:22:26;2.67;;;2.47;;
42802;SDS011;28447;48.682;9.022;2023-07-20T10:24:52;4.03;;;2.63;;
42802;SDS011;28447;48.682;9.022;2023-07-20T10:27:22;3.03;;;2.73;;
42802;SDS011;28447;48.682;9.022;2023-07-20T10:29:48;3.00;;;2.40;;
42802;SDS011;28447;48.682;9.022;2023-07-20T10:32:16;5.27;;;2.80;;
42802;SDS011;28447;48.682;9.022;2023-07-20T10:34:49;4.50;;;2.70;;
42802;SDS011;28447;48.682;9.022;2023-07-20T10:43:18;3.83;;;2.90;;
42802;SDS011;28447;48.682;9.022;2023-07-20T10:45:48;2.90;;;2.60;;
42802;SDS011;28447;48.682;9.022;2023-07-20T10:48:23;3.53;;;2.67;;
42802;SDS011;28447;48.682;9.022;2023-07-20T10:53:40;3.03;;;2.73;;
42802;SDS011;28447;48.682;9.022;2023-07-20T10:56:13;3.37;;;2.53;;
42802;SDS011;28447;48.682;9.022;2023-07-20T10:58:40;3.00;;;2.57;;
42802;SDS011;28447;48.682;9.022;2023-07-20T11:01:07;2.80;;;2.60;;
42802;SDS011;28447;48.682;9.022;2023-07-20T11:03:34;2.73;;;2.50;;
42802;SDS011;28447;48.682;9.022;2023-07-20T11:08:50;5.00;;;3.20;;
42802;SDS011;28447;48.682;9.022;2023-07-20T11:11:24;5.30;;;3.27;;
42802;SDS011;28447;48.682;9.022;2023-07-20T11:14:01;2.77;;;2.40;;
42802;SDS011;28447;48.682;9.022;2023-07-20T11:16:42;4.33;;;3.23;;
42802;SDS011;28447;48.682;9.022;2023-07-20T11:19:16;3.33;;;2.40;;
42802;SDS011;28447;48.682;9.022;2023-07-20T11:21:57;2.60;;;2.40;;
42802;SDS011;28447;48.682;9.022;2023-07-20T11:24:24;3.30;;;2.40;;
42802;SDS011;28447;48.682;9.022;2023-07-20T11:26:50;3.90;;;2.70;;
42802;SDS011;28447;48.682;9.022;2023-07-20T11:29:17;2.53;;;2.17;;
42802;SDS011;28447;48.682;9.022;2023-07-20T11:31:48;4.17;;;2.30;;
42802;SDS011;28447;48.682;9.022;2023-07-20T11:34:15;4.67;;;2.50;;
42802;SDS011;28447;48.682;9.022;2023-07-20T11:36:45;3.20;;;2.43;;
42802;SDS011;28447;48.682;9.022;2023-07-20T11:39:13;3.67;;;2.70;;
42802;SDS011;28447;48.682;9.022;2023-07-20T11:41:43;4.30;;;2.90;;
42802;SDS011;28447;48.682;9.022;2023-07-20T11:44:11;3.17;;;2.58;;
42802;SDS011;28447;48.682;9.022;2023-07-20T11:46:40;4.75;;;2.65;;
42802;SDS011;28447;48.682;9.022;2023-07-20T11:49:07;2.90;;;2.70;;
42802;SDS011;28447;48.682;9.022;2023-07-20T11:51:33;2.95;;;2.65;;
42802;SDS011;28447;48.682;9.022;2023-07-20T11:54:00;3.33;;;2.58;;
42802;SDS011;28447;48.682;9.022;2023-07-20T11:56:27;3.00;;;2.70;;
42802;SDS011;28447;48.682;9.022;2023-07-20T11:58:59;3.33;;;2.95;;
42802;SDS011;28447;48.682;9.022;2023-07-20T12:01:27;2.92;;;2.58;;
42802;SDS011;28447;48.682;9.022;2023-07-20T12:04:00;3.55;;;2.60;;
42802;SDS011;28447;48.682;9.022;2023-07-20T12:06:28;3.28;;;2.85;;
42802;SDS011;28447;48.682;9.022;2023-07-20T12:08:57;2.97;;;2.67;;
42802;SDS011;28447;48.682;9.022;2023-07-20T12:11:33;3.97;;;2.92;;
42802;SDS011;28447;48.682;9.022;2023-07-20T12:14:00;5.07;;;3.00;;
42802;SDS011;28447;48.682;9.022;2023-07-20T12:16:26;3.08;;;2.78;;
42802;SDS011;28447;48.682;9.022;2023-07-20T12:18:59;6.55;;;2.63;;
42802;SDS011;28447;48.682;9.022;2023-07-20T12:21:31;2.72;;;2.15;;
42802;SDS011;28447;48.682;9.022;2023-07-20T12:23:57;3.15;;;2.83;;
42802;SDS011;28447;48.682;9.022;2023-07-20T12:26:23;3.72;;;2.90;;
42802;SDS011;28447;48.682;9.022;2023-07-20T12:28:50;5.35;;;2.90;;
42802;SDS011;28447;48.682;9.022;2023-07-20T12:31:16;3.20;;;2.80;;
42802;SDS011;28447;48.682;9.022;2023-07-20T12:33:42;3.08;;;2.75;;
42802;SDS011;28447;48.682;9.022;2023-07-20T12:36:08;3.25;;;2.80;;
42802;SDS011;28447;48.682;9.022;2023-07-20T12:38:35;2.90;;;2.70;;
42802;SDS011;28447;48.682;9.022;2023-07-20T12:41:01;2.90;;;2.70;;
42802;SDS011;28447;48.682;9.022;2023-07-20T12:43:28;4.07;;;2.63;;
42802;SDS011;28447;48.682;9.022;2023-07-20T12:45:54;5.07;;;2.63;;
42802;SDS011;28447;48.682;9.022;2023-07-20T12:48:20;7.05;;;2.65;;
42802;SDS011;28447;48.682;9.022;2023-07-20T12:50:46;2.80;;;2.50;;
42802;SDS011;28447;48.682;9.022;2023-07-20T12:53:12;2.83;;;2.63;;
42802;SDS011;28447;48.682;9.022;2023-07-20T12:55:38;3.85;;;3.20;;
42802;SDS011;28447;48.682;9.022;2023-07-20T12:58:07;4.35;;;3.13;;
42802;SDS011;28447;48.682;9.022;2023-07-20T13:00:33;2.97;;;2.78;;
42802;SDS011;28447;48.682;9.022;2023-07-20T13:02:58;2.97;;;2.70;;
42802;SDS011;28447;48.682;9.022;2023-07-20T13:05:24;3.10;;;2.80;;
42802;SDS011;28447;48.682;9.022;2023-07-20T13:07:50;3.50;;;3.00;;
42802;SDS011;28447;48.682;9.022;2023-07-20T13:10:16;3.78;;;2.30;;
42802;SDS011;28447;48.682;9.022;2023-07-20T13:12:42;3.25;;;3.05;;
42802;SDS011;28447;48.682;9.022;2023-07-20T13:15:08;3.25;;;2.80;;
42802;SDS011;28447;48.682;9.022;2023-07-20T13:17:36;2.70;;;2.50;;
42802;SDS011;28447;48.682;9.022;2023-07-20T13:20:04;3.47;;;3.17;;
42802;SDS011;28447;48.682;9.022;2023-07-20T13:22:31;3.10;;;2.80;;
42802;SDS011;28447;48.682;9.022;2023-07-20T13:24:57;3.65;;;3.00;;
42802;SDS011;28447;48.682;9.022;2023-07-20T13:27:23;3.00;;;2.60;;
42802;SDS011;28447;48.682;9.022;2023-07-20T13:29:51;3.30;;;3.00;;
42802;SDS011;28447;48.682;9.022;2023-07-20T13:32:17;2.72;;;2.50;;
42802;SDS011;28447;48.682;9.022;2023-07-20T13:34:43;2.83;;;2.63;;
42802;SDS011;28447;48.682;9.022;2023-07-20T13:37:10;3.22;;;2.85;;
42802;SDS011;28447;48.682;9.022;2023-07-20T13:39:36;3.10;;;2.90;;
42802;SDS011;28447;48.682;9.022;2023-07-20T13:42:02;4.07;;;2.83;;
42802;SDS011;28447;48.682;9.022;2023-07-20T13:44:30;4.18;;;3.10;;
42802;SDS011;28447;48.682;9.022;2023-07-20T13:46:56;3.90;;;3.20;;
42802;SDS011;28447;48.682;9.022;2023-07-20T13:49:22;4.65;;;2.78;;
42802;SDS011;28447;48.682;9.022;2023-07-20T13:51:48;3.10;;;2.80;;
42802;SDS011;28447;48.682;9.022;2023-07-20T13:54:14;3.25;;;2.95;;
42802;SDS011;28447;48.682;9.022;2023-07-20T13:56:39;4.10;;;2.85;;
42802;SDS011;28447;48.682;9.022;2023-07-20T13:59:05;3.10;;;2.67;;
42802;SDS011;28447;48.682;9.022;2023-07-20T14:01:31;3.20;;;2.90;;
42802;SDS011;28447;48.682;9.022;2023-07-20T14:03:59;3.03;;;2.75;;
42802;SDS011;28447;48.682;9.022;2023-07-20T14:06:25;3.22;;;2.92;;
42802;SDS011;28447;48.682;9.022;2023-07-20T14:08:51;4.43;;;2.72;;
42802;SDS011;28447;48.682;9.022;2023-07-20T14:11:18;2.85;;;2.65;;
42802;SDS011;28447;48.682;9.022;2023-07-20T14:13:44;4.00;;;3.17;;
42802;SDS011;28447;48.682;9.022;2023-07-20T14:16:09;2.85;;;2.58;;
42802;SDS011;28447;48.682;9.022;2023-07-20T14:18:35;5.20;;;2.78;;
42802;SDS011;28447;48.682;9.022;2023-07-20T14:21:01;3.42;;;3.13;;
42802;SDS011;28447;48.682;9.022;2023-07-20T14:23:28;4.35;;;3.10;;
42802;SDS011;28447;48.682;9.022;2023-07-20T14:25:54;2.92;;;2.65;;
42802;SDS011;28447;48.682;9.022;2023-07-20T14:28:20;5.10;;;2.67;;
42802;SDS011;28447;48.682;9.022;2023-07-20T14:30:46;2.60;;;2.40;;
42802;SDS011;28447;48.682;9.022;2023-07-20T14:33:12;2.80;;;2.60;;
42802;SDS011;28447;48.682;9.022;2023-07-20T14:35:37;2.67;;;2.47;;
42802;SDS011;28447;48.682;9.022;2023-07-20T14:38:03;3.53;;;2.78;;
42802;SDS011;28447;48.682;9.022;2023-07-20T14:40:28;3.03;;;2.72;;
42802;SDS011;28447;48.682;9.022;2023-07-20T14:42:57;2.70;;;2.50;;
42802;SDS011;28447;48.682;9.022;2023-07-20T14:45:24;2.88;;;2.67;;
42802;SDS011;28447;48.682;9.022;2023-07-20T14:47:49;3.55;;;2.70;;
42802;SDS011;28447;48.682;9.022;2023-07-20T14:50:19;5.13;;;2.97;;
42802;SDS011;28447;48.682;9.022;2023-07-20T14:52:45;3.17;;;2.88;;
42802;SDS011;28447;48.682;9.022;2023-07-20T14:55:11;2.75;;;2.55;;
42802;SDS011;28447;48.682;9.022;2023-07-20T14:57:37;4.60;;;2.85;;
42802;SDS011;28447;48.682;9.022;2023-07-20T15:00:03;3.83;;;2.55;;
42802;SDS011;28447;48.682;9.022;2023-07-20T15:02:33;2.70;;;2.50;;
42802;SDS011;28447;48.682;9.022;2023-07-20T15:04:58;3.08;;;2.88;;
42802;SDS011;28447;48.682;9.022;2023-07-20T15:07:24;3.92;;;2.70;;
42802;SDS011;28447;48.682;9.022;2023-07-20T15:09:50;3.40;;;2.90;;
42802;SDS011;28447;48.682;9.022;2023-07-20T15:12:16;3.10;;;2.80;;
42802;SDS011;28447;48.682;9.022;2023-07-20T15:14:42;2.90;;;2.67;;
42802;SDS011;28447;48.682;9.022;2023-07-20T15:17:08;2.90;;;2.70;;
42802;SDS011;28447;48.682;9.022;2023-07-20T15:19:35;3.00;;;2.80;;
42802;SDS011;28447;48.682;9.022;2023-07-20T15:22:01;2.83;;;2.60;;
42802;SDS011;28447;48.682;9.022;2023-07-20T15:24:28;3.03;;;2.75;;
42802;SDS011;28447;48.682;9.022;2023-07-20T15:26:54;2.90;;;2.70;;
42802;SDS011;28447;48.682;9.022;2023-07-20T15:29:20;6.47;;;2.70;;
42802;SDS011;28447;48.682;9.022;2023-07-20T15:31:46;3.85;;;2.60;;
42802;SDS011;28447;48.682;9.022;2023-07-20T15:34:13;3.88;;;2.90;;
42802;SDS011;28447;48.682;9.022;2023-07-20T15:36:40;4.82;;;2.75;;
42802;SDS011;28447;48.682;9.022;2023-07-20T15:39:06;2.83;;;2.63;;
42802;SDS011;28447;48.682;9.022;2023-07-20T15:41:32;3.95;;;2.90;;
42802;SDS011;28447;48.682;9.022;2023-07-20T15:43:58;2.80;;;2.60;;
42802;SDS011;28447;48.682;9.022;2023-07-20T15:49:08;3.55;;;2.70;;
42802;SDS011;28447;48.682;9.022;2023-07-20T15:51:34;2.90;;;2.55;;
42802;SDS011;28447;48.682;9.022;2023-07-20T15:54:06;7.80;;;2.78;;
42802;SDS011;28447;48.682;9.022;2023-07-20T15:56:36;3.10;;;2.80;;
42802;SDS011;28447;48.682;9.022;2023-07-20T15:59:05;7.85;;;2.50;;
42802;SDS011;28447;48.682;9.022;2023-07-20T16:01:34;2.65;;;2.45;;
42802;SDS011;28447;48.682;9.022;2023-07-20T16:04:00;3.25;;;2.53;;
42802;SDS011;28447;48.682;9.022;2023-07-20T16:06:26;2.80;;;2.60;;
42802;SDS011;28447;48.682;9.022;2023-07-20T16:08:52;2.50;;;2.30;;
42802;SDS011;28447;48.682;9.022;2023-07-20T16:11:18;6.75;;;2.85;;
42802;SDS011;28447;48.682;9.022;2023-07-20T16:13:44;2.92;;;2.60;;
42802;SDS011;28447;48.682;9.022;2023-07-20T16:16:10;2.60;;;2.40;;
42802;SDS011;28447;48.682;9.022;2023-07-20T16:18:36;4.07;;;2.50;;
42802;SDS011;28447;48.682;9.022;2023-07-20T16:21:02;2.80;;;2.20;;
42802;SDS011;28447;48.682;9.022;2023-07-20T16:23:28;3.38;;;2.55;;
42802;SDS011;28447;48.682;9.022;2023-07-20T16:25:53;2.88;;;2.63;;
42802;SDS011;28447;48.682;9.022;2023-07-20T16:28:19;3.05;;;2.80;;
42802;SDS011;28447;48.682;9.022;2023-07-20T16:30:45;2.92;;;2.67;;
42802;SDS011;28447;48.682;9.022;2023-07-20T16:33:10;4.07;;;2.72;;
42802;SDS011;28447;48.682;9.022;2023-07-20T16:35:36;3.00;;;2.50;;
42802;SDS011;28447;48.682;9.022;2023-07-20T16:38:02;4.07;;;2.97;;
42802;SDS011;28447;48.682;9.022;2023-07-20T16:40:28;3.03;;;2.67;;
42802;SDS011;28447;48.682;9.022;2023-07-20T16:42:54;3.70;;;2.90;;
42802;SDS011;28447;48.682;9.022;2023-07-20T16:45:19;4.23;;;3.10;;
42802;SDS011;28447;48.682;9.022;2023-07-20T16:47:45;3.30;;;3.00;;
42802;SDS011;28447;48.682;9.022;2023-07-20T16:50:11;3.13;;;2.50;;
42802;SDS011;28447;48.682;9.022;2023-07-20T16:52:37;3.20;;;2.70;;
42802;SDS011;28447;48.682;9.022;2023-07-20T16:55:02;3.77;;;3.00;;
42802;SDS011;28447;48.682;9.022;2023-07-20T16:57:28;2.90;;;2.60;;
42802;SDS011;28447;48.682;9.022;2023-07-20T16:59:54;4.97;;;2.70;;
42802;SDS011;28447;48.682;9.022;2023-07-20T17:02:20;3.20;;;2.90;;
42802;SDS011;28447;48.682;9.022;2023-07-20T17:04:48;3.00;;;2.70;;
42802;SDS011;28447;48.682;9.022;2023-07-20T17:07:14;3.00;;;2.80;;
42802;SDS011;28447;48.682;9.022;2023-07-20T17:09:40;2.97;;;2.67;;
42802;SDS011;28447;48.682;9.022;2023-07-20T17:12:07;3.77;;;2.57;;
42802;SDS011;28447;48.682;9.022;2023-07-20T17:14:34;3.37;;;3.00;;
42802;SDS011;28447;48.682;9.022;2023-07-20T17:17:00;2.60;;;2.40;;
42802;SDS011;28447;48.682;9.022;2023-07-20T17:19:26;3.60;;;2.73;;
42802;SDS011;28447;48.682;9.022;2023-07-20T17:21:52;3.00;;;2.50;;
42802;SDS011;28447;48.682;9.022;2023-07-20T17:24:18;3.93;;;2.70;;
42802;SDS011;28447;48.682;9.022;2023-07-20T17:26:44;4.50;;;2.80;;
42802;SDS011;28447;48.682;9.022;2023-07-20T17:29:10;4.67;;;2.90;;
42802;SDS011;28447;48.682;9.022;2023-07-20T17:31:35;7.67;;;3.00;;
42802;SDS011;28447;48.682;9.022;2023-07-20T17:34:01;3.67;;;2.60;;
42802;SDS011;28447;48.682;9.022;2023-07-20T17:36:28;2.77;;;2.57;;
42802;SDS011;28447;48.682;9.022;2023-07-20T17:38:54;3.53;;;2.70;;
42802;SDS011;28447;48.682;9.022;2023-07-20T17:41:19;5.10;;;2.83;;
42802;SDS011;28447;48.682;9.022;2023-07-20T17:43:46;4.67;;;2.87;;
42802;SDS011;28447;48.682;9.022;2023-07-20T17:46:11;3.33;;;2.60;;
42802;SDS011;28447;48.682;9.022;2023-07-20T17:48:37;3.20;;;2.70;;
42802;SDS011;28447;48.682;9.022;2023-07-20T17:51:03;4.23;;;3.23;;
42802;SDS011;28447;48.682;9.022;2023-07-20T17:53:28;4.00;;;2.53;;
42802;SDS011;28447;48.682;9.022;2023-07-20T17:55:54;4.20;;;3.17;;
42802;SDS011;28447;48.682;9.022;2023-07-20T17:58:20;4.70;;;3.40;;
42802;SDS011;28447;48.682;9.022;2023-07-20T18:00:45;4.17;;;3.30;;
42802;SDS011;28447;48.682;9.022;2023-07-20T18:03:11;2.87;;;2.67;;
42802;SDS011;28447;48.682;9.022;2023-07-20T18:05:37;5.50;;;3.00;;
42802;SDS011;28447;48.682;9.022;2023-07-20T18:08:03;3.97;;;3.20;;
42802;SDS011;28447;48.682;9.022;2023-07-20T18:10:28;3.00;;;2.63;;
42802;SDS011;28447;48.682;9.022;2023-07-20T18:12:54;3.23;;;2.83;;
42802;SDS011;28447;48.682;9.022;2023-07-20T18:15:20;3.67;;;2.77;;
42802;SDS011;28447;48.682;9.022;2023-07-20T18:17:45;2.87;;;2.63;;
42802;SDS011;28447;48.682;9.022;2023-07-20T18:20:11;3.03;;;2.67;;
42802;SDS011;28447;48.682;9.022;2023-07-20T18:22:37;4.00;;;2.80;;
42802;SDS011;28447;48.682;9.022;2023-07-20T18:25:03;6.30;;;2.93;;
42802;SDS011;28447;48.682;9.022;2023-07-20T18:27:30;3.50;;;2.80;;
42802;SDS011;28447;48.682;9.022;2023-07-20T18:29:56;5.00;;;2.87;;
42802;SDS011;28447;48.682;9.022;2023-07-20T18:32:22;3.30;;;2.80;;
42802;SDS011;28447;48.682;9.022;2023-07-20T18:34:48;3.00;;;2.70;;
42802;SDS011;28447;48.682;9.022;2023-07-20T18:37:14;3.90;;;3.33;;
42802;SDS011;28447;48.682;9.022;2023-07-20T18:39:44;5.90;;;2.80;;
42802;SDS011;28447;48.682;9.022;2023-07-20T18:42:11;4.67;;;3.60;;
42802;SDS011;28447;48.682;9.022;2023-07-20T18:44:36;3.60;;;2.70;;
42802;SDS011;28447;48.682;9.022;2023-07-20T18:47:02;2.83;;;2.60;;
42802;SDS011;28447;48.682;9.022;2023-07-20T18:49:28;2.93;;;2.53;;
42802;SDS011;28447;48.682;9.022;2023-07-20T18:51:54;4.00;;;2.87;;
42802;SDS011;28447;48.682;9.022;2023-07-20T18:54:20;3.00;;;2.70;;
42802;SDS011;28447;48.682;9.022;2023-07-20T18:56:46;5.47;;;2.80;;
42802;SDS011;28447;48.682;9.022;2023-07-20T18:59:12;3.20;;;2.60;;